Time;durP1;ratioP1;P1;durP2;ratioP2;P2;SDS_P1;SDS_P2;PMS_P1;PMS_P2;Temp;Humidity;BMP_temperature;BMP_pressure;BME280_temperature;BME280_humidity;BME280_pressure;Samples;Min_cycle;Max_cycle;Signal;HPM_P1;HPM_P2
2021/11/20 00:01:51;;;;;;;23.13;10.23;;;;;;;;;;5014422;28;20073;-80
2021/11/20 00:04:19;;;;;;;25.70;10.57;;;;;;;;;;5014635;28;20079;-82
2021/11/20 00:06:52;;;;;;;25.65;9.80;;;;;;;;;;5013876;28;20069;-82
2021/11/20 00:09:23;;;;;;;24.90;9.75;;;;;;;;;;5014120;28;20069;-82
2021/11/20 00:11:54;;;;;;;26.75;9.98;;;;;;;;;;5014457;28;20104;-81
2021/11/20 00:14:23;;;;;;;23.33;9.13;;;;;;;;;;5012130;28;20077;-81
2021/11/20 00:16:52;;;;;;;24.30;9.02;;;;;;;;;;5012577;28;20058;-82
2021/11/20 00:19:19;;;;;;;26.45;9.70;;;;;;;;;;5013327;28;20073;-81
2021/11/20 00:21:48;;;;;;;25.63;10.73;;;;;;;;;;5014451;28;20046;-80
2021/11/20 00:24:20;;;;;;;20.50;7.93;;;;;;;;;;5013875;28;20183;-82
2021/11/20 00:26:47;;;;;;;22.52;9.02;;;;;;;;;;5012982;28;20080;-82
2021/11/20 00:29:38;;;;;;;22.63;7.63;;;;;;;;;;5015250;28;20069;-82
2021/11/20 00:32:08;;;;;;;21.10;8.75;;;;;;;;;;5017834;28;20067;-83
2021/11/20 00:34:34;;;;;;;23.83;9.38;;;;;;;;;;5018453;28;20495;-82
2021/11/20 00:37:01;;;;;;;21.92;8.48;;;;;;;;;;5017044;28;20077;-83
2021/11/20 00:39:30;;;;;;;21.90;8.57;;;;;;;;;;5017166;28;20038;-82
2021/11/20 00:41:58;;;;;;;20.25;8.18;;;;;;;;;;5017229;28;20074;-82
2021/11/20 00:44:26;;;;;;;24.48;8.50;;;;;;;;;;5018056;28;20416;-82
2021/11/20 00:46:53;;;;;;;20.02;8.18;;;;;;;;;;5018364;28;20065;-83
2021/11/20 00:49:21;;;;;;;21.60;8.80;;;;;;;;;;5017511;28;20046;-81
2021/11/20 00:51:48;;;;;;;18.20;7.70;;;;;;;;;;5016411;28;20481;-82
2021/11/20 00:54:15;;;;;;;17.77;7.53;;;;;;;;;;5017377;28;20053;-80
2021/11/20 00:56:42;;;;;;;22.02;9.18;;;;;;;;;;5016173;28;20522;-83
2021/11/20 00:59:09;;;;;;;20.60;7.47;;;;;;;;;;5019278;28;20088;-84
2021/11/20 01:01:40;;;;;;;18.95;7.03;;;;;;;;;;5017132;28;20077;-82
2021/11/20 01:04:07;;;;;;;19.80;7.35;;;;;;;;;;5018649;28;20085;-81
2021/11/20 01:06:34;;;;;;;19.70;8.10;;;;;;;;;;5017981;28;20132;-82
2021/11/20 01:09:02;;;;;;;21.08;7.75;;;;;;;;;;5016816;28;20070;-81
2021/11/20 01:11:31;;;;;;;16.98;7.85;;;;;;;;;;5017605;28;20060;-80
2021/11/20 01:13:59;;;;;;;20.95;7.38;;;;;;;;;;5016648;28;20478;-82
2021/11/20 01:16:27;;;;;;;18.10;7.07;;;;;;;;;;5017653;28;20058;-83
2021/11/20 01:18:55;;;;;;;21.27;7.40;;;;;;;;;;5018186;28;20081;-81
2021/11/20 01:21:21;;;;;;;15.18;6.07;;;;;;;;;;5017925;28;20109;-82
2021/11/20 01:23:49;;;;;;;21.88;7.00;;;;;;;;;;5017152;28;20129;-81
2021/11/20 01:26:17;;;;;;;17.13;6.72;;;;;;;;;;5017107;28;20131;-82
2021/11/20 01:28:48;;;;;;;14.43;7.18;;;;;;;;;;5016416;28;20069;-82
2021/11/20 01:31:15;;;;;;;16.33;6.47;;;;;;;;;;5016833;28;20081;-83
2021/11/20 01:33:43;;;;;;;17.08;7.20;;;;;;;;;;5016184;28;20088;-83
2021/11/20 01:36:13;;;;;;;17.45;7.90;;;;;;;;;;5016595;28;20038;-84
2021/11/20 01:38:42;;;;;;;16.40;6.28;;;;;;;;;;5014569;28;20514;-84
2021/11/20 01:41:08;;;;;;;18.35;7.55;;;;;;;;;;5016001;28;20153;-81
2021/11/20 01:43:35;;;;;;;17.33;7.45;;;;;;;;;;5015647;28;20062;-83
2021/11/20 01:46:05;;;;;;;20.40;7.45;;;;;;;;;;5016787;28;20485;-82
2021/11/20 01:48:55;;;;;;;16.63;7.40;;;;;;;;;;5015935;28;20149;-82
2021/11/20 01:51:29;;;;;;;15.45;6.60;;;;;;;;;;5016857;28;20057;-82
2021/11/20 01:54:04;;;;;;;16.05;6.75;;;;;;;;;;5016843;28;20119;-84
2021/11/20 01:56:33;;;;;;;17.92;6.28;;;;;;;;;;5015121;28;20059;-82
2021/11/20 01:59:04;;;;;;;16.23;6.38;;;;;;;;;;5014724;28;20122;-81
2021/11/20 02:01:37;;;;;;;16.05;6.32;;;;;;;;;;5015763;28;20080;-85
2021/11/20 02:04:07;;;;;;;15.30;6.65;;;;;;;;;;5015123;28;20080;-82
2021/11/20 02:06:41;;;;;;;15.75;7.22;;;;;;;;;;5014907;28;20081;-82
2021/11/20 02:09:13;;;;;;;15.13;6.90;;;;;;;;;;5014951;28;20163;-83
2021/11/20 02:11:42;;;;;;;16.63;7.20;;;;;;;;;;5014959;28;20069;-84
2021/11/20 02:14:11;;;;;;;13.32;5.72;;;;;;;;;;5016226;28;20103;-80
2021/11/20 02:16:40;;;;;;;14.02;6.30;;;;;;;;;;5016872;28;20053;-81
2021/11/20 02:19:13;;;;;;;14.00;6.28;;;;;;;;;;5017589;28;20085;-81
2021/11/20 02:21:47;;;;;;;14.38;6.38;;;;;;;;;;5016193;28;20487;-84
2021/11/20 02:24:13;;;;;;;13.60;6.50;;;;;;;;;;5014458;28;20082;-82
2021/11/20 02:26:40;;;;;;;15.68;6.45;;;;;;;;;;5015288;28;20073;-81
2021/11/20 02:29:10;;;;;;;15.20;6.40;;;;;;;;;;5015720;28;20100;-82
2021/11/20 02:31:40;;;;;;;14.57;6.43;;;;;;;;;;5015315;28;20080;-82
2021/11/20 02:34:06;;;;;;;16.70;6.07;;;;;;;;;;5015888;28;20069;-82
2021/11/20 02:36:33;;;;;;;17.83;6.72;;;;;;;;;;5015504;28;21319;-81
2021/11/20 02:39:03;;;;;;;12.43;6.32;;;;;;;;;;5014277;28;20450;-82
2021/11/20 02:41:32;;;;;;;18.13;6.95;;;;;;;;;;5014723;28;20058;-82
2021/11/20 02:44:00;;;;;;;15.60;6.90;;;;;;;;;;5016068;28;20080;-82
2021/11/20 02:46:29;;;;;;;14.32;6.65;;;;;;;;;;5015097;28;20042;-82
2021/11/20 02:48:57;;;;;;;12.57;5.88;;;;;;;;;;5016532;28;20104;-82
2021/11/20 02:51:26;;;;;;;18.00;6.93;;;;;;;;;;5016410;28;20077;-80
2021/11/20 02:53:57;;;;;;;15.75;6.47;;;;;;;;;;5015315;28;20589;-82
2021/11/20 02:56:26;;;;;;;14.25;6.63;;;;;;;;;;5015565;28;20074;-82
2021/11/20 02:58:52;;;;;;;14.10;6.15;;;;;;;;;;5015798;28;20104;-82
2021/11/20 03:01:23;;;;;;;17.60;6.82;;;;;;;;;;5016431;28;20145;-80
2021/11/20 03:03:50;;;;;;;16.25;6.65;;;;;;;;;;5016804;28;20065;-83
2021/11/20 03:06:18;;;;;;;14.48;6.80;;;;;;;;;;5015480;28;20077;-81
2021/11/20 03:08:44;;;;;;;13.70;6.78;;;;;;;;;;5014977;28;20050;-83
2021/11/20 03:11:13;;;;;;;14.70;5.70;;;;;;;;;;5015877;28;20050;-82
2021/11/20 03:13:41;;;;;;;13.02;5.85;;;;;;;;;;5015072;28;20406;-82
2021/11/20 03:16:08;;;;;;;12.73;5.75;;;;;;;;;;5014303;28;20057;-82
2021/11/20 03:18:35;;;;;;;14.27;6.53;;;;;;;;;;5014530;28;20046;-81
2021/11/20 03:21:02;;;;;;;12.75;6.35;;;;;;;;;;5013985;28;20480;-83
2021/11/20 03:23:32;;;;;;;13.63;6.40;;;;;;;;;;5014106;28;20087;-83
2021/11/20 03:25:59;;;;;;;15.85;7.22;;;;;;;;;;5014873;28;20133;-83
2021/11/20 03:28:25;;;;;;;12.85;6.07;;;;;;;;;;5013950;28;20057;-81
2021/11/20 03:30:52;;;;;;;12.18;5.57;;;;;;;;;;5015409;28;20081;-83
2021/11/20 03:33:19;;;;;;;15.40;6.47;;;;;;;;;;5014477;28;20426;-82
2021/11/20 03:35:46;;;;;;;14.05;6.80;;;;;;;;;;5014334;28;20077;-82
2021/11/20 03:38:13;;;;;;;12.70;6.50;;;;;;;;;;5014441;28;20069;-84
2021/11/20 03:40:42;;;;;;;13.68;6.95;;;;;;;;;;5015088;28;20074;-81
2021/11/20 03:43:08;;;;;;;16.55;7.18;;;;;;;;;;5014732;28;20073;-82
2021/11/20 03:45:36;;;;;;;18.92;7.00;;;;;;;;;;5015374;28;20069;-81
2021/11/20 03:48:04;;;;;;;13.82;6.18;;;;;;;;;;5015209;28;20073;-81
2021/11/20 03:50:31;;;;;;;13.93;6.00;;;;;;;;;;5014847;28;20113;-81
2021/11/20 03:52:58;;;;;;;13.75;6.88;;;;;;;;;;5015284;28;20065;-83
2021/11/20 03:55:27;;;;;;;16.23;8.00;;;;;;;;;;5014725;28;20143;-83
2021/11/20 03:57:55;;;;;;;15.20;6.05;;;;;;;;;;5013522;28;20070;-81
2021/11/20 04:00:24;;;;;;;16.48;7.25;;;;;;;;;;5013150;28;20069;-80
2021/11/20 04:02:50;;;;;;;12.73;5.93;;;;;;;;;;5012754;28;20125;-80
2021/11/20 04:05:18;;;;;;;13.63;7.03;;;;;;;;;;5013123;28;20080;-83
2021/11/20 04:07:45;;;;;;;10.43;5.40;;;;;;;;;;5010770;28;20081;-81
2021/11/20 04:10:12;;;;;;;12.02;6.13;;;;;;;;;;5012567;28;20084;-84
2021/11/20 04:12:39;;;;;;;13.00;6.45;;;;;;;;;;5013562;28;20149;-82
2021/11/20 04:15:10;;;;;;;13.10;6.68;;;;;;;;;;5013236;28;20073;-82
2021/11/20 04:17:36;;;;;;;12.15;6.03;;;;;;;;;;5013532;28;20143;-81
2021/11/20 04:20:04;;;;;;;13.57;7.25;;;;;;;;;;5014404;28;20462;-81
2021/11/20 04:22:31;;;;;;;11.35;5.75;;;;;;;;;;5013406;28;20073;-81
2021/11/20 04:24:57;;;;;;;11.15;5.60;;;;;;;;;;5013112;28;20101;-82
2021/11/20 04:27:24;;;;;;;13.45;5.80;;;;;;;;;;5013379;28;20069;-81
2021/11/20 04:29:50;;;;;;;14.95;6.30;;;;;;;;;;5013641;28;20084;-81
2021/11/20 04:32:18;;;;;;;12.55;6.18;;;;;;;;;;5014418;28;20956;-82
2021/11/20 04:34:45;;;;;;;11.70;5.75;;;;;;;;;;5012881;28;20046;-82
2021/11/20 04:37:11;;;;;;;11.82;5.80;;;;;;;;;;5013752;28;20474;-83
2021/11/20 04:39:38;;;;;;;12.15;6.35;;;;;;;;;;5014405;28;20046;-82
2021/11/20 04:42:05;;;;;;;12.82;6.28;;;;;;;;;;5012771;28;20072;-82
2021/11/20 04:44:32;;;;;;;12.30;6.28;;;;;;;;;;5014304;28;20073;-83
2021/11/20 04:46:58;;;;;;;12.63;7.05;;;;;;;;;;5012286;28;20042;-84
2021/11/20 04:49:26;;;;;;;12.98;5.97;;;;;;;;;;5014279;28;20042;-81
2021/11/20 04:51:53;;;;;;;12.82;6.28;;;;;;;;;;5014718;28;20073;-81
2021/11/20 04:54:19;;;;;;;13.18;6.63;;;;;;;;;;5014260;28;20070;-82
2021/11/20 04:56:46;;;;;;;12.43;5.97;;;;;;;;;;5014499;28;20049;-82
2021/11/20 04:59:12;;;;;;;12.38;5.63;;;;;;;;;;5013460;28;20046;-84
2021/11/20 05:01:39;;;;;;;12.20;6.18;;;;;;;;;;5013929;28;20132;-82
2021/11/20 05:04:05;;;;;;;11.45;6.13;;;;;;;;;;5013602;28;20077;-82
2021/11/20 05:06:34;;;;;;;11.65;5.45;;;;;;;;;;5013154;28;20073;-82
2021/11/20 05:09:00;;;;;;;9.60;5.00;;;;;;;;;;5013048;28;20050;-82
2021/11/20 05:11:28;;;;;;;11.45;6.20;;;;;;;;;;5014323;28;20073;-83
2021/11/20 05:13:55;;;;;;;12.45;6.53;;;;;;;;;;5013085;28;20042;-83
2021/11/20 05:16:22;;;;;;;11.82;5.95;;;;;;;;;;5013115;28;20093;-83
2021/11/20 05:18:48;;;;;;;11.25;5.45;;;;;;;;;;5015819;28;20073;-84
2021/11/20 05:21:16;;;;;;;12.52;6.07;;;;;;;;;;5017105;28;20557;-83
2021/11/20 05:23:45;;;;;;;12.75;5.93;;;;;;;;;;5016447;28;20065;-83
2021/11/20 05:26:13;;;;;;;11.55;5.78;;;;;;;;;;5016423;28;20041;-83
2021/11/20 05:28:41;;;;;;;10.98;5.72;;;;;;;;;;5016193;28;20097;-83
2021/11/20 05:31:08;;;;;;;11.63;6.03;;;;;;;;;;5017038;28;20054;-82
2021/11/20 05:33:38;;;;;;;12.73;6.55;;;;;;;;;;5016971;28;20070;-82
2021/11/20 05:36:06;;;;;;;13.45;5.72;;;;;;;;;;5016117;28;20042;-83
2021/11/20 05:38:32;;;;;;;13.07;6.32;;;;;;;;;;5016522;28;20090;-84
2021/11/20 05:41:01;;;;;;;12.48;6.35;;;;;;;;;;5016883;28;20363;-83
2021/11/20 05:43:27;;;;;;;12.82;6.47;;;;;;;;;;5017030;28;20049;-83
2021/11/20 05:45:57;;;;;;;12.02;6.65;;;;;;;;;;5016036;28;20081;-81
2021/11/20 05:48:24;;;;;;;15.32;6.40;;;;;;;;;;5016961;28;20465;-82
2021/11/20 05:50:51;;;;;;;13.32;6.97;;;;;;;;;;5015978;28;20506;-84
2021/11/20 05:53:19;;;;;;;11.27;5.70;;;;;;;;;;5017551;28;20596;-82
2021/11/20 05:55:47;;;;;;;10.52;5.50;;;;;;;;;;5014949;28;20049;-83
2021/11/20 05:58:15;;;;;;;11.32;6.35;;;;;;;;;;5015775;28;20105;-84
2021/11/20 06:00:44;;;;;;;12.23;6.47;;;;;;;;;;5015092;28;20431;-82
2021/11/20 06:03:12;;;;;;;13.52;6.38;;;;;;;;;;5016423;28;20096;-85
2021/11/20 06:05:40;;;;;;;12.00;5.53;;;;;;;;;;5014549;28;20046;-82
2021/11/20 06:08:07;;;;;;;15.40;6.88;;;;;;;;;;5016990;28;20081;-83
2021/11/20 06:10:34;;;;;;;10.95;6.15;;;;;;;;;;5017222;28;20450;-83
2021/11/20 06:13:00;;;;;;;17.58;7.20;;;;;;;;;;5015593;28;20069;-83
2021/11/20 06:15:28;;;;;;;10.85;5.82;;;;;;;;;;5014918;28;20066;-82
2021/11/20 06:17:55;;;;;;;11.32;6.88;;;;;;;;;;5016734;28;20073;-82
2021/11/20 06:20:22;;;;;;;12.32;5.97;;;;;;;;;;5016232;28;20076;-83
2021/11/20 06:22:48;;;;;;;16.13;6.95;;;;;;;;;;5016276;28;20042;-82
2021/11/20 06:25:16;;;;;;;16.77;7.18;;;;;;;;;;5016312;28;20062;-83
2021/11/20 06:27:42;;;;;;;15.63;7.07;;;;;;;;;;5016127;28;20085;-82
2021/11/20 06:30:12;;;;;;;14.30;5.55;;;;;;;;;;5016086;28;20091;-82
2021/11/20 06:32:40;;;;;;;13.80;6.68;;;;;;;;;;5015372;28;20092;-82
2021/11/20 06:35:11;;;;;;;16.60;7.05;;;;;;;;;;5014806;28;20085;-83
2021/11/20 06:37:39;;;;;;;13.68;7.13;;;;;;;;;;5016083;28;20057;-81
2021/11/20 06:40:07;;;;;;;13.05;6.72;;;;;;;;;;5014512;28;20184;-80
2021/11/20 06:42:33;;;;;;;11.43;6.25;;;;;;;;;;5015649;28;20125;-83
2021/11/20 06:45:00;;;;;;;10.20;5.82;;;;;;;;;;5015909;28;20073;-82
2021/11/20 06:47:26;;;;;;;16.05;6.85;;;;;;;;;;5015866;28;20088;-83
2021/11/20 06:49:54;;;;;;;12.48;6.47;;;;;;;;;;5015715;28;20069;-82
2021/11/20 06:52:21;;;;;;;14.85;6.85;;;;;;;;;;5015444;28;20041;-79
2021/11/20 06:54:48;;;;;;;17.63;7.72;;;;;;;;;;5015529;28;20100;-80
2021/11/20 06:57:26;;;;;;;13.35;6.20;;;;;;;;;;5014445;28;20125;-81
2021/11/20 07:02:37;;;;;;;11.90;6.88;;;;;;;;;;5015794;28;20413;-82
2021/11/20 07:05:07;;;;;;;12.48;5.88;;;;;;;;;;5015743;28;20325;-82
2021/11/20 07:07:34;;;;;;;13.07;6.20;;;;;;;;;;5015679;28;20128;-82
2021/11/20 07:10:02;;;;;;;13.35;6.40;;;;;;;;;;5015368;28;20478;-81
2021/11/20 07:12:28;;;;;;;11.95;5.75;;;;;;;;;;5015087;28;20065;-80
2021/11/20 07:14:55;;;;;;;11.45;5.88;;;;;;;;;;5014684;28;20069;-82
2021/11/20 07:17:21;;;;;;;9.82;5.60;;;;;;;;;;5015631;28;20038;-82
2021/11/20 07:19:48;;;;;;;13.52;6.25;;;;;;;;;;5015249;28;20077;-81
2021/11/20 07:22:16;;;;;;;12.75;6.57;;;;;;;;;;5013677;28;20049;-82
2021/11/20 07:24:43;;;;;;;12.48;6.60;;;;;;;;;;5015765;28;20103;-82
2021/11/20 07:27:10;;;;;;;12.30;6.43;;;;;;;;;;5015203;28;20060;-81
2021/11/20 07:29:36;;;;;;;11.73;6.20;;;;;;;;;;5014884;28;20061;-83
2021/11/20 07:32:04;;;;;;;14.90;6.68;;;;;;;;;;5015829;28;20076;-82
2021/11/20 07:34:30;;;;;;;13.70;6.78;;;;;;;;;;5015592;28;20089;-82
2021/11/20 07:36:58;;;;;;;15.50;7.53;;;;;;;;;;5014746;28;20100;-83
2021/11/20 07:39:26;;;;;;;21.02;8.77;;;;;;;;;;5018319;28;20046;-83
2021/11/20 07:41:52;;;;;;;17.67;9.18;;;;;;;;;;5013631;28;20058;-80
2021/11/20 07:44:19;;;;;;;20.73;10.30;;;;;;;;;;5014040;28;20081;-82
2021/11/20 07:46:46;;;;;;;16.65;7.93;;;;;;;;;;5016615;28;20118;-82
2021/11/20 07:49:14;;;;;;;14.70;7.20;;;;;;;;;;5015283;28;20511;-83
2021/11/20 07:51:43;;;;;;;17.10;8.45;;;;;;;;;;5017831;28;20069;-81
2021/11/20 07:54:10;;;;;;;21.83;11.43;;;;;;;;;;5014511;28;20046;-82
2021/11/20 07:56:41;;;;;;;15.88;8.18;;;;;;;;;;5017592;28;20556;-83
2021/11/20 07:59:09;;;;;;;16.35;8.45;;;;;;;;;;5018915;28;20038;-82
2021/11/20 08:01:35;;;;;;;12.73;7.40;;;;;;;;;;5016257;28;20554;-82
2021/11/20 08:04:02;;;;;;;17.02;8.00;;;;;;;;;;5016518;28;20077;-82
2021/11/20 08:06:31;;;;;;;16.35;7.40;;;;;;;;;;5013186;28;20069;-83
2021/11/20 08:09:02;;;;;;;16.33;8.45;;;;;;;;;;5014458;28;20042;-84
2021/11/20 08:11:29;;;;;;;15.45;9.05;;;;;;;;;;5015719;28;20058;-82
2021/11/20 08:13:57;;;;;;;14.68;7.78;;;;;;;;;;5014182;28;20088;-82
2021/11/20 08:16:23;;;;;;;17.58;9.18;;;;;;;;;;5015167;28;20043;-82
2021/11/20 08:18:50;;;;;;;19.83;11.13;;;;;;;;;;5015417;28;20137;-82
2021/11/20 08:21:16;;;;;;;15.55;8.25;;;;;;;;;;5015477;28;20081;-83
2021/11/20 08:23:45;;;;;;;39.63;21.05;;;;;;;;;;5016415;28;20042;-83
2021/11/20 08:26:12;;;;;;;19.10;11.32;;;;;;;;;;5017473;28;20079;-84
2021/11/20 08:28:38;;;;;;;16.60;9.35;;;;;;;;;;5015054;28;20073;-83
2021/11/20 08:31:06;;;;;;;15.43;8.90;;;;;;;;;;5015011;28;20107;-84
2021/11/20 08:33:33;;;;;;;18.05;9.40;;;;;;;;;;5016681;28;20045;-82
2021/11/20 08:36:00;;;;;;;20.23;10.57;;;;;;;;;;5014683;28;20065;-83
2021/11/20 08:38:27;;;;;;;32.47;11.32;;;;;;;;;;5015450;28;20073;-85
2021/11/20 08:40:54;;;;;;;20.55;10.10;;;;;;;;;;5016712;28;20084;-84
2021/11/20 08:43:28;;;;;;;21.00;9.90;;;;;;;;;;5014897;28;20034;-82
2021/11/20 08:45:55;;;;;;;19.02;10.82;;;;;;;;;;5016063;28;20085;-81
2021/11/20 08:48:23;;;;;;;14.05;8.77;;;;;;;;;;5015767;28;20041;-81
2021/11/20 08:50:51;;;;;;;14.23;8.43;;;;;;;;;;5014996;28;20192;-83
2021/11/20 08:53:18;;;;;;;17.70;9.25;;;;;;;;;;5017945;28;20046;-83
2021/11/20 08:55:45;;;;;;;13.88;8.25;;;;;;;;;;5018988;28;20069;-85
2021/11/20 08:58:12;;;;;;;14.73;7.50;;;;;;;;;;5019252;28;20124;-85
2021/11/20 09:07:27;;;;;;;16.33;8.32;;;;;;;;;;5018955;28;20104;-82
2021/11/20 09:10:02;;;;;;;16.60;9.02;;;;;;;;;;5019103;28;20046;-82
2021/11/20 09:12:31;;;;;;;15.40;8.57;;;;;;;;;;5017961;28;20073;-83
2021/11/20 09:15:00;;;;;;;15.98;8.68;;;;;;;;;;5018824;28;20070;-84
2021/11/20 09:17:27;;;;;;;16.90;7.47;;;;;;;;;;5016789;28;20074;-86
2021/11/20 09:19:53;;;;;;;14.73;7.60;;;;;;;;;;5020024;28;20438;-81
2021/11/20 09:22:20;;;;;;;14.85;8.43;;;;;;;;;;5017668;28;20088;-82
2021/11/20 09:24:50;;;;;;;15.70;9.68;;;;;;;;;;5017849;28;20704;-81
2021/11/20 09:27:18;;;;;;;21.25;10.35;;;;;;;;;;5016606;28;20085;-80
2021/11/20 09:29:44;;;;;;;12.90;8.48;;;;;;;;;;5016028;28;20116;-81
2021/11/20 09:32:12;;;;;;;14.15;7.80;;;;;;;;;;5016672;28;20112;-81
2021/11/20 09:34:39;;;;;;;14.82;9.18;;;;;;;;;;5018268;28;20050;-81
2021/11/20 09:37:06;;;;;;;16.38;8.32;;;;;;;;;;5017116;28;20054;-82
2021/11/20 09:39:34;;;;;;;16.13;8.05;;;;;;;;;;5017487;28;20093;-81
2021/11/20 09:42:24;;;;;;;13.05;7.20;;;;;;;;;;5018116;28;20108;-81
2021/11/20 09:44:52;;;;;;;13.63;7.30;;;;;;;;;;5018115;28;20046;-81
2021/11/20 09:47:21;;;;;;;27.08;8.10;;;;;;;;;;5016330;28;20061;-82
2021/11/20 09:49:50;;;;;;;14.60;6.95;;;;;;;;;;5016725;28;20057;-82
2021/11/20 09:52:17;;;;;;;18.20;7.85;;;;;;;;;;5017713;28;20054;-83
2021/11/20 09:54:46;;;;;;;16.00;7.70;;;;;;;;;;5016637;28;20065;-82
2021/11/20 09:57:24;;;;;;;17.52;8.20;;;;;;;;;;5018222;28;20061;-82
2021/11/20 09:59:54;;;;;;;14.27;8.52;;;;;;;;;;5017871;28;20092;-83
2021/11/20 10:02:24;;;;;;;14.02;8.63;;;;;;;;;;5015867;28;20807;-81
2021/11/20 10:04:55;;;;;;;16.98;11.50;;;;;;;;;;5015751;28;20104;-81
2021/11/20 10:07:29;;;;;;;16.75;9.55;;;;;;;;;;5017847;28;20045;-82
2021/11/20 10:10:01;;;;;;;19.27;10.18;;;;;;;;;;5015967;28;20820;-82
2021/11/20 10:12:38;;;;;;;13.25;7.97;;;;;;;;;;5017016;28;20042;-83
2021/11/20 10:15:11;;;;;;;16.75;9.02;;;;;;;;;;5018088;28;20065;-83
2021/11/20 10:17:43;;;;;;;17.33;8.23;;;;;;;;;;5016009;28;20049;-82
2021/11/20 10:20:24;;;;;;;14.50;8.80;;;;;;;;;;5017217;28;20050;-82
2021/11/20 10:22:56;;;;;;;14.80;7.53;;;;;;;;;;5017325;28;20054;-84
2021/11/20 10:25:46;;;;;;;12.43;7.13;;;;;;;;;;5016909;28;20072;-83
2021/11/20 10:28:19;;;;;;;12.85;7.60;;;;;;;;;;5016791;28;20053;-84
2021/11/20 10:30:56;;;;;;;13.10;7.85;;;;;;;;;;5016079;28;20038;-83
2021/11/20 10:33:39;;;;;;;11.40;6.25;;;;;;;;;;5016380;28;20070;-84
2021/11/20 10:36:11;;;;;;;12.68;7.30;;;;;;;;;;5016735;28;20081;-84
2021/11/20 10:38:44;;;;;;;9.18;6.25;;;;;;;;;;5016966;28;20050;-83
2021/11/20 10:41:14;;;;;;;12.10;7.60;;;;;;;;;;5016612;28;20042;-84
2021/11/20 10:43:44;;;;;;;12.90;7.30;;;;;;;;;;5017096;28;20077;-82
2021/11/20 10:46:21;;;;;;;15.68;7.82;;;;;;;;;;5015408;28;20054;-84
2021/11/20 10:49:10;;;;;;;12.45;6.63;;;;;;;;;;5015161;28;21517;-82
2021/11/20 10:51:52;;;;;;;9.93;5.70;;;;;;;;;;5016880;28;20077;-84
2021/11/20 10:54:43;;;;;;;8.90;5.40;;;;;;;;;;5017932;28;20092;-83
2021/11/20 10:57:13;;;;;;;11.55;6.20;;;;;;;;;;5016873;28;20057;-82
2021/11/20 11:00:07;;;;;;;9.25;5.25;;;;;;;;;;5016478;28;20042;-84
2021/11/20 11:02:49;;;;;;;8.35;4.82;;;;;;;;;;5016429;28;20073;-83
2021/11/20 11:05:42;;;;;;;8.38;4.80;;;;;;;;;;5014678;28;20073;-84
2021/11/20 11:08:19;;;;;;;9.38;5.85;;;;;;;;;;5016000;28;20071;-83
2021/11/20 11:10:49;;;;;;;13.70;7.63;;;;;;;;;;5015832;28;20041;-84
2021/11/20 11:13:24;;;;;;;11.57;7.00;;;;;;;;;;5016340;28;20824;-84
2021/11/20 11:16:04;;;;;;;9.13;6.32;;;;;;;;;;5015449;28;20070;-84
2021/11/20 11:18:36;;;;;;;11.90;5.13;;;;;;;;;;5019100;28;20046;-84
2021/11/20 11:21:43;;;;;;;7.25;4.00;;;;;;;;;;5016308;28;20053;-83
2021/11/20 11:24:29;;;;;;;6.85;3.85;;;;;;;;;;5016079;28;20116;-83
2021/11/20 11:27:01;;;;;;;5.28;2.95;;;;;;;;;;5014675;28;20069;-84
2021/11/20 11:29:40;;;;;;;6.55;3.15;;;;;;;;;;5014929;28;20092;-82
2021/11/20 11:32:16;;;;;;;7.53;5.00;;;;;;;;;;5014026;28;20066;-85
2021/11/20 11:34:47;;;;;;;8.15;4.78;;;;;;;;;;5013198;28;20070;-84
2021/11/20 11:37:23;;;;;;;14.13;7.15;;;;;;;;;;5014513;28;20050;-84
2021/11/20 11:39:52;;;;;;;24.05;11.23;;;;;;;;;;5012080;28;20042;-83
2021/11/20 11:42:29;;;;;;;15.77;10.10;;;;;;;;;;5015336;28;20150;-84
2021/11/20 11:45:02;;;;;;;10.90;6.32;;;;;;;;;;5014761;28;20046;-82
2021/11/20 11:47:36;;;;;;;7.38;4.47;;;;;;;;;;5014160;28;20091;-84
2021/11/20 11:50:28;;;;;;;7.88;4.88;;;;;;;;;;5014538;28;20050;-84
2021/11/20 11:52:58;;;;;;;14.90;8.48;;;;;;;;;;5016921;28;20457;-82
2021/11/20 11:55:50;;;;;;;12.02;6.65;;;;;;;;;;5014557;28;20115;-82
2021/11/20 11:58:26;;;;;;;12.60;7.20;;;;;;;;;;5014081;28;20074;-83
2021/11/20 12:00:59;;;;;;;;;;;;;;;;;;5016623;28;20475;-84
2021/11/20 12:03:32;;;;;;;14.73;5.90;;;;;;;;;;5011125;28;20015;-82
2021/11/20 12:06:12;;;;;;;15.88;9.15;;;;;;;;;;5013042;28;20046;-84
2021/11/20 12:08:41;;;;;;;8.77;5.25;;;;;;;;;;5010719;28;20053;-83
2021/11/20 12:11:14;;;;;;;22.30;6.93;;;;;;;;;;5014064;28;20185;-84
2021/11/20 12:13:42;;;;;;;9.20;4.97;;;;;;;;;;5015524;28;20054;-82
2021/11/20 12:16:26;;;;;;;8.95;5.28;;;;;;;;;;5014922;28;21492;-83
2021/11/20 12:18:59;;;;;;;9.95;4.78;;;;;;;;;;5012053;28;20050;-84
2021/11/20 12:21:37;;;;;;;9.85;4.65;;;;;;;;;;5012217;28;20038;-83
2021/11/20 12:24:12;;;;;;;6.72;4.00;;;;;;;;;;5012598;28;20046;-84
2021/11/20 12:26:53;;;;;;;7.45;4.20;;;;;;;;;;5013479;28;20042;-84
2021/11/20 12:29:28;;;;;;;11.60;4.85;;;;;;;;;;5015239;28;20085;-85
2021/11/20 12:32:06;;;;;;;7.63;3.90;;;;;;;;;;5016167;28;20081;-84
2021/11/20 12:34:52;;;;;;;7.60;4.18;;;;;;;;;;5016661;28;20052;-82
2021/11/20 12:37:33;;;;;;;8.88;4.47;;;;;;;;;;5016230;28;20057;-83
2021/11/20 12:40:20;;;;;;;6.43;4.03;;;;;;;;;;5017382;28;20426;-83
2021/11/20 12:43:04;;;;;;;6.45;3.88;;;;;;;;;;5016122;28;20080;-83
2021/11/20 12:45:50;;;;;;;6.40;4.22;;;;;;;;;;5015294;28;20092;-85
2021/11/20 12:48:40;;;;;;;6.65;3.92;;;;;;;;;;5014469;28;20088;-83
2021/11/20 12:51:10;;;;;;;6.05;3.47;;;;;;;;;;5014638;28;20053;-85
2021/11/20 12:53:39;;;;;;;6.32;3.38;;;;;;;;;;5014891;28;20059;-83
2021/11/20 12:56:28;;;;;;;6.28;3.58;;;;;;;;;;5016042;28;20767;-83
2021/11/20 12:58:57;;;;;;;6.07;3.47;;;;;;;;;;5016744;28;20041;-83
2021/11/20 13:01:31;;;;;;;5.70;3.28;;;;;;;;;;5015177;28;20116;-83
2021/11/20 13:04:09;;;;;;;7.07;3.85;;;;;;;;;;5014515;28;20054;-83
2021/11/20 13:06:43;;;;;;;8.40;4.20;;;;;;;;;;5015771;28;20046;-83
2021/11/20 13:09:22;;;;;;;8.75;3.95;;;;;;;;;;5014623;28;20054;-82
2021/11/20 13:11:52;;;;;;;6.75;3.80;;;;;;;;;;5014146;28;20058;-84
2021/11/20 13:14:24;;;;;;;6.47;3.53;;;;;;;;;;5014429;28;20081;-83
2021/11/20 13:17:01;;;;;;;12.65;5.38;;;;;;;;;;5013996;28;20045;-84
2021/11/20 13:19:30;;;;;;;6.22;3.58;;;;;;;;;;5015197;28;20129;-82
2021/11/20 13:22:14;;;;;;;8.35;4.10;;;;;;;;;;5015067;28;20076;-83
2021/11/20 13:24:54;;;;;;;5.60;3.22;;;;;;;;;;5013779;28;20073;-83
2021/11/20 13:27:56;;;;;;;15.45;4.78;;;;;;;;;;5014435;28;20520;-85
2021/11/20 13:30:26;;;;;;;7.22;4.40;;;;;;;;;;5014239;28;20045;-83
2021/11/20 13:32:55;;;;;;;8.73;5.25;;;;;;;;;;5014307;28;20041;-83
2021/11/20 13:35:24;;;;;;;7.13;4.80;;;;;;;;;;5016129;28;20076;-83
2021/11/20 13:37:53;;;;;;;7.10;4.20;;;;;;;;;;5015547;28;20088;-84
2021/11/20 13:40:29;;;;;;;7.65;4.72;;;;;;;;;;5014068;28;20061;-84
2021/11/20 13:42:57;;;;;;;9.50;5.73;;;;;;;;;;5015668;28;20041;-83
2021/11/20 13:45:26;;;;;;;8.43;5.05;;;;;;;;;;5015324;28;20050;-83
2021/11/20 13:47:53;;;;;;;7.68;4.85;;;;;;;;;;5014679;28;20081;-83
2021/11/20 13:50:20;;;;;;;9.32;5.32;;;;;;;;;;5012181;28;20092;-83
2021/11/20 13:52:47;;;;;;;6.78;4.18;;;;;;;;;;5014418;28;20049;-83
2021/11/20 13:55:17;;;;;;;7.90;4.53;;;;;;;;;;5017106;28;20105;-84
2021/11/20 13:57:48;;;;;;;7.35;4.22;;;;;;;;;;5015647;28;20054;-86
2021/11/20 14:00:20;;;;;;;7.53;4.65;;;;;;;;;;5013718;28;20053;-84
2021/11/20 14:02:49;;;;;;;9.75;5.35;;;;;;;;;;5013898;28;20093;-84
2021/11/20 14:05:16;;;;;;;7.00;4.38;;;;;;;;;;5016486;28;20643;-83
2021/11/20 14:07:43;;;;;;;6.90;4.35;;;;;;;;;;5013923;28;20046;-83
2021/11/20 14:10:13;;;;;;;7.32;4.22;;;;;;;;;;5012936;28;20061;-82
2021/11/20 14:13:00;;;;;;;7.75;4.03;;;;;;;;;;5014971;28;20050;-84
2021/11/20 14:15:29;;;;;;;6.63;4.47;;;;;;;;;;5015330;28;20051;-83
2021/11/20 14:18:01;;;;;;;7.25;4.13;;;;;;;;;;5013004;28;20050;-83
2021/11/20 14:20:27;;;;;;;7.22;4.70;;;;;;;;;;5013890;28;20049;-84
2021/11/20 14:22:54;;;;;;;6.43;3.35;;;;;;;;;;5014967;28;20077;-82
2021/11/20 14:25:23;;;;;;;6.40;4.00;;;;;;;;;;5012735;28;20049;-84
2021/11/20 14:27:57;;;;;;;9.48;4.82;;;;;;;;;;5017011;28;20929;-83
2021/11/20 14:30:24;;;;;;;8.27;5.00;;;;;;;;;;5014531;28;20128;-83
2021/11/20 14:32:52;;;;;;;7.18;4.65;;;;;;;;;;5013849;28;20046;-84
2021/11/20 14:35:19;;;;;;;14.98;7.93;;;;;;;;;;5012651;28;20609;-83
2021/11/20 14:37:45;;;;;;;14.32;8.15;;;;;;;;;;5015043;28;20203;-84
2021/11/20 14:40:13;;;;;;;11.00;6.60;;;;;;;;;;5014454;28;20049;-82
2021/11/20 14:42:42;;;;;;;9.38;5.10;;;;;;;;;;5023845;28;20053;-84
2021/11/20 14:45:11;;;;;;;16.50;6.20;;;;;;;;;;5015217;28;20050;-84
2021/11/20 14:47:42;;;;;;;11.55;5.53;;;;;;;;;;5013420;28;20109;-82
2021/11/20 14:50:17;;;;;;;9.23;5.90;;;;;;;;;;5011524;28;20131;-84
2021/11/20 14:52:44;;;;;;;8.63;5.43;;;;;;;;;;5012478;28;20104;-85
2021/11/20 14:55:12;;;;;;;13.32;6.53;;;;;;;;;;5012982;28;20049;-84
2021/11/20 14:57:41;;;;;;;9.88;5.68;;;;;;;;;;5012917;28;20112;-83
2021/11/20 15:00:11;;;;;;;11.50;5.68;;;;;;;;;;5012250;28;20123;-83
2021/11/20 15:02:41;;;;;;;9.52;5.40;;;;;;;;;;5013124;28;20038;-85